LCLK/LCA METAR and TAF weather

Enter ICAO airport designator
Station Type Date Time Source
LCLK METAR 2019/02/21 16:00 UTC NOAA

LCLK 211600Z 34005KT 280V030 9999 FEW025TCU 12/10 Q1019 NOSIG


Station Type Date Time Source
LCLK Decoded METAR 2019/02/21 16:00 UTC NOAA

Larnaca Airport, Cyprus (LCLK) 34-53N 033-38E 2M
Feb 21, 2019 - 11:00 AM EST / 2019.02.21 1600 UTC
Wind: from the NNW (340 degrees) at 6 MPH (5 KT) (direction variable):0
Visibility: greater than 7 mile(s):0
Sky conditions: mostly clear
Weather: Towering cumulus clouds observed
Temperature: 53 F (12 C)
Dew Point: 50 F (10 C)
Relative Humidity: 87%
Pressure (altimeter): 30.09 in. Hg (1019 hPa)
ob: LCLK 211600Z 34005KT 280V030 9999 FEW025TCU 12/10 Q1019 NOSIG
cycle: 16

Station Type Date Time Source
LCLK TAF 2019/02/21 12:33 UTC NOAA

TAF TAF LCLK 211130Z 2112/2212 21012KT 9999 FEW025 SCT035 PROB40
TEMPO 2112/2117 5000 SHRA SCT020TCU PROB30
TEMPO 2112/2117 VRB20G30KT 3000 TSRA SCT025CB
BECMG 2116/2120 32006KT
BECMG 2210/2212 21012KT


Example: see airport list